Terminal Aerodrome Forecast
Issued by NWS Chicago, IL

Home | Current Version | Previous Version | Text Only | Print | Product List | Glossary Off
Versions: 1 2 3 4 5 6 7 8 9 10 11 12 13 14 15 16 17 18 19 20 21 22 23 24 25 26 27 28 29 30 31 32 33 34

000
FTUS43 KLOT 311600 AAB
TAFRFD
TAF AMD
KRFD 311603Z 3116/0112 25011KT P6SM BKN040 BKN150
     FM312200 VRB03KT P6SM OVC020
     FM010100 VRB03KT 1 1/2SM -SN SCT007 OVC015
     FM010300 05006KT 1SM -SN BKN004 OVC007
     FM010700 07012KT 3/4SM -SN OVC007=

USA.gov is the U.S. government's official web portal to all federal, state and local government web resources and services.